Time;durP1;ratioP1;P1;durP2;ratioP2;P2;SDS_P1;SDS_P2;PMS_P1;PMS_P2;Temp;Humidity;BMP_temperature;BMP_pressure;BME280_temperature;BME280_humidity;BME280_pressure;Samples;Min_cycle;Max_cycle;Signal;HPM_P1;HPM_P2
2024/02/11 00:01:30;;;;;;;15.57;12.35;;;16.00;83.70;;;;;;4078896;29;20182;-44
2024/02/11 00:04:11;;;;;;;17.17;12.30;;;15.90;83.30;;;;;;4090754;28;20420;-45
2024/02/11 00:06:54;;;;;;;15.70;13.48;;;15.90;83.40;;;;;;4089492;28;20137;-48
2024/02/11 00:09:35;;;;;;;17.02;13.07;;;16.00;84.50;;;;;;4090317;28;20183;-50
2024/02/11 00:12:16;;;;;;;14.68;11.45;;;16.00;83.60;;;;;;4090283;28;20062;-44
2024/02/11 00:14:57;;;;;;;15.27;12.80;;;15.90;83.70;;;;;;4077999;29;20098;-43
2024/02/11 00:17:39;;;;;;;14.20;12.13;;;15.90;83.80;;;;;;4090310;28;20062;-45
2024/02/11 00:20:19;;;;;;;18.05;12.93;;;15.90;83.40;;;;;;4090211;28;20101;-42
2024/02/11 00:23:04;;;;;;;15.30;11.80;;;15.90;83.40;;;;;;4089407;28;20190;-43
2024/02/11 00:25:45;;;;;;;17.35;12.85;;;15.90;83.40;;;;;;4078172;28;20589;-43
2024/02/11 00:28:25;;;;;;;16.80;13.17;;;15.90;83.50;;;;;;4090163;28;20128;-45
2024/02/11 00:31:07;;;;;;;16.92;12.73;;;15.90;83.70;;;;;;4089535;28;20644;-44
2024/02/11 00:33:48;;;;;;;16.48;13.73;;;15.90;83.50;;;;;;4089838;28;20135;-42
2024/02/11 00:36:29;;;;;;;17.38;13.25;;;15.90;83.60;;;;;;4090174;28;20053;-43
2024/02/11 00:39:12;;;;;;;17.27;12.05;;;15.90;83.30;;;;;;4089424;28;20117;-43
2024/02/11 00:41:52;;;;;;;18.40;15.00;;;15.90;83.10;;;;;;4077132;29;20061;-43
2024/02/11 00:44:34;;;;;;;20.98;14.95;;;15.80;83.10;;;;;;4089090;28;20848;-43
2024/02/11 00:47:15;;;;;;;18.88;14.52;;;15.90;83.20;;;;;;4090000;28;20069;-43
2024/02/11 00:49:56;;;;;;;18.05;14.50;;;15.90;83.30;;;;;;4089323;28;20050;-44
2024/02/11 00:52:40;;;;;;;17.73;12.82;;;15.80;83.00;;;;;;4089498;28;20050;-43
2024/02/11 00:55:23;;;;;;;19.98;12.40;;;15.80;82.80;;;;;;4099828;28;20057;-44
2024/02/11 00:58:05;;;;;;;19.63;13.77;;;15.80;83.20;;;;;;4088164;28;20503;-44
2024/02/11 01:00:46;;;;;;;;;;;15.80;83.40;;;;;;4089797;29;20384;-44
2024/02/11 01:03:29;;;;;;;18.77;13.73;;;15.80;83.40;;;;;;4073715;29;20013;-46
2024/02/11 01:06:12;;;;;;;18.48;12.57;;;15.80;83.40;;;;;;4078955;28;20057;-44
2024/02/11 01:08:53;;;;;;;29.30;13.55;;;15.80;83.10;;;;;;4088964;28;20062;-43
2024/02/11 01:11:35;;;;;;;22.20;13.65;;;15.80;83.10;;;;;;4089230;28;20050;-43
2024/02/11 01:14:18;;;;;;;22.23;15.50;;;15.70;83.40;;;;;;4089329;28;20110;-44
2024/02/11 01:16:59;;;;;;;17.73;11.43;;;15.80;83.40;;;;;;4082054;28;20066;-42
2024/02/11 01:19:40;;;;;;;22.35;14.00;;;15.70;83.20;;;;;;4073118;29;20126;-42
2024/02/11 01:22:21;;;;;;;21.30;14.32;;;15.70;83.50;;;;;;4084171;28;20085;-51
2024/02/11 01:25:03;;;;;;;22.00;13.45;;;15.70;83.30;;;;;;4089568;28;20062;-52
2024/02/11 01:27:45;;;;;;;24.45;14.00;;;15.70;83.10;;;;;;4089677;28;20053;-51
2024/02/11 01:30:26;;;;;;;17.13;12.70;;;15.70;83.00;;;;;;4085268;28;20050;-50
2024/02/11 01:33:09;;;;;;;18.73;12.15;;;15.70;83.10;;;;;;4088440;28;20421;-47
2024/02/11 01:35:50;;;;;;;21.83;13.48;;;15.70;83.00;;;;;;4089405;28;20061;-50
2024/02/11 01:38:32;;;;;;;18.10;13.60;;;15.60;83.00;;;;;;4086135;28;20171;-50
2024/02/11 01:41:12;;;;;;;17.27;12.98;;;15.70;83.50;;;;;;4089086;28;20071;-48
2024/02/11 01:43:57;;;;;;;20.75;12.73;;;15.60;83.30;;;;;;4080768;28;20109;-52
2024/02/11 01:46:38;;;;;;;21.58;13.77;;;15.60;82.90;;;;;;4088743;28;20186;-52
2024/02/11 01:49:22;;;;;;;18.40;12.40;;;15.60;83.30;;;;;;4088483;28;20101;-49
2024/02/11 01:52:05;;;;;;;20.20;13.77;;;15.60;83.60;;;;;;4088364;28;20179;-50
2024/02/11 01:54:47;;;;;;;20.27;13.60;;;15.60;84.00;;;;;;4088875;28;20124;-48
2024/02/11 01:57:28;;;;;;;16.85;11.68;;;15.60;83.40;;;;;;4088719;28;20057;-49
2024/02/11 02:00:12;;;;;;;;;;;15.50;83.40;;;;;;4089302;28;20047;-48
2024/02/11 02:02:56;;;;;;;17.23;11.45;;;15.50;82.60;;;;;;4088330;28;20292;-47
2024/02/11 02:05:38;;;;;;;17.63;11.43;;;15.50;83.20;;;;;;4087704;28;20046;-48
2024/02/11 02:08:21;;;;;;;19.08;12.48;;;15.50;83.70;;;;;;4088674;28;20145;-48
2024/02/11 02:11:03;;;;;;;19.77;11.93;;;15.50;84.30;;;;;;4088790;28;20102;-48
2024/02/11 02:13:44;;;;;;;19.02;10.57;;;15.50;84.00;;;;;;4087895;28;20062;-51
2024/02/11 02:16:26;;;;;;;20.75;11.48;;;15.50;84.00;;;;;;4073113;28;20590;-48
2024/02/11 02:19:07;;;;;;;18.10;11.57;;;15.50;84.20;;;;;;4087466;28;20050;-48
2024/02/11 02:21:51;;;;;;;19.35;12.48;;;15.50;84.40;;;;;;4088040;28;20624;-47
2024/02/11 02:24:32;;;;;;;21.23;12.95;;;15.50;84.50;;;;;;4089105;28;20113;-49
2024/02/11 02:27:13;;;;;;;20.10;11.77;;;15.50;84.40;;;;;;4067441;29;20175;-49
2024/02/11 02:29:54;;;;;;;17.73;12.13;;;15.50;84.20;;;;;;4082411;29;20055;-49
2024/02/11 02:32:35;;;;;;;17.42;11.40;;;15.50;84.20;;;;;;4091493;29;20105;-49
2024/02/11 02:35:21;;;;;;;17.17;10.98;;;15.50;83.80;;;;;;4092562;29;20510;-44
2024/02/11 02:38:03;;;;;;;20.55;11.38;;;15.50;84.20;;;;;;4091666;29;20531;-42
2024/02/11 02:40:47;;;;;;;21.75;13.02;;;15.50;83.80;;;;;;4075556;29;20050;-43
2024/02/11 02:43:28;;;;;;;15.05;10.68;;;15.50;83.70;;;;;;4076120;29;20059;-43
2024/02/11 02:46:10;;;;;;;;;;;15.50;83.60;;;;;;4089025;28;20057;-42
2024/02/11 02:48:51;;;;;;;14.77;9.68;;;15.50;84.40;;;;;;4091228;28;20272;-43
2024/02/11 02:51:32;;;;;;;16.02;10.15;;;15.40;83.60;;;;;;4091490;28;20129;-43
2024/02/11 02:54:15;;;;;;;17.55;11.48;;;15.40;83.50;;;;;;4091560;28;20190;-43
2024/02/11 02:56:56;;;;;;;15.98;10.40;;;15.40;83.10;;;;;;4091067;28;20511;-42
2024/02/11 02:59:37;;;;;;;16.67;10.27;;;15.40;83.10;;;;;;4079216;29;20066;-43
2024/02/11 03:02:18;;;;;;;13.23;10.23;;;15.40;83.30;;;;;;4091376;28;20562;-42
2024/02/11 03:05:00;;;;;;;12.63;9.02;;;15.40;83.90;;;;;;4087373;28;20126;-43
2024/02/11 03:07:41;;;;;;;;;;;15.30;83.00;;;;;;4092151;28;20086;-43
2024/02/11 03:10:23;;;;;;;17.10;9.15;;;15.30;83.50;;;;;;4091208;28;20624;-43
2024/02/11 03:13:05;;;;;;;12.68;8.40;;;15.30;83.60;;;;;;4090019;28;20053;-51
2024/02/11 03:15:46;;;;;;;13.48;8.75;;;15.30;83.50;;;;;;4090572;28;20058;-50
2024/02/11 03:18:26;;;;;;;16.98;8.73;;;15.30;83.60;;;;;;4090746;28;20055;-51
2024/02/11 03:21:07;;;;;;;12.40;7.93;;;15.30;83.80;;;;;;4091092;28;20054;-52
2024/02/11 03:23:48;;;;;;;14.32;9.13;;;15.20;83.70;;;;;;4076600;29;20058;-50
2024/02/11 03:26:31;;;;;;;12.23;8.45;;;15.30;84.30;;;;;;4087871;28;20195;-52
2024/02/11 03:29:12;;;;;;;14.32;8.57;;;15.30;83.90;;;;;;4085261;28;20177;-44
2024/02/11 03:31:54;;;;;;;15.00;8.35;;;15.30;83.60;;;;;;4090264;28;20384;-43
2024/02/11 03:34:35;;;;;;;15.77;10.13;;;15.30;83.90;;;;;;4090591;28;20074;-48
2024/02/11 03:37:16;;;;;;;13.88;9.20;;;15.20;84.00;;;;;;4091117;28;20066;-49
2024/02/11 03:39:57;;;;;;;15.38;9.88;;;15.20;84.00;;;;;;4080859;28;20058;-48
2024/02/11 03:42:40;;;;;;;17.17;9.98;;;15.20;84.10;;;;;;4091227;28;20102;-51
2024/02/11 03:45:22;;;;;;;17.38;9.02;;;15.20;85.00;;;;;;4090570;28;20093;-49
2024/02/11 03:48:03;;;;;;;14.77;10.02;;;15.20;83.50;;;;;;4091288;28;20054;-51
2024/02/11 03:50:45;;;;;;;18.00;9.68;;;15.20;83.60;;;;;;4090967;28;20049;-49
2024/02/11 03:53:26;;;;;;;18.25;11.02;;;15.20;83.40;;;;;;4075088;29;20058;-50
2024/02/11 03:56:08;;;;;;;19.92;10.75;;;15.20;83.50;;;;;;4066744;28;20218;-50
2024/02/11 03:58:50;;;;;;;19.90;11.32;;;15.20;83.90;;;;;;4089400;28;20199;-49
2024/02/11 04:01:33;;;;;;;18.60;11.68;;;15.20;85.20;;;;;;4089757;28;20062;-48
2024/02/11 04:04:17;;;;;;;22.88;12.10;;;15.20;84.40;;;;;;4089944;28;20106;-48
2024/02/11 04:06:59;;;;;;;19.45;10.27;;;15.20;84.40;;;;;;4090732;28;20074;-51
2024/02/11 04:09:40;;;;;;;19.30;12.02;;;15.20;84.70;;;;;;4090353;28;20547;-52
2024/02/11 04:12:22;;;;;;;;;;;15.20;84.00;;;;;;4089951;28;20198;-43
2024/02/11 04:15:09;;;;;;;;;;;15.20;84.20;;;;;;4090894;29;19933;-42
2024/02/11 04:17:53;;;;;;;19.02;11.10;;;15.20;84.00;;;;;;4077833;29;20394;-44
2024/02/11 04:20:35;;;;;;;17.63;11.10;;;15.10;84.50;;;;;;4088674;28;20153;-43
2024/02/11 04:23:16;;;;;;;20.58;12.25;;;15.20;84.60;;;;;;4077128;28;20426;-43
2024/02/11 04:25:57;;;;;;;18.08;11.38;;;15.10;84.00;;;;;;4089901;29;20114;-43
2024/02/11 04:28:38;;;;;;;18.92;13.07;;;15.20;84.10;;;;;;4089337;28;20198;-44
2024/02/11 04:31:21;;;;;;;20.48;13.43;;;15.10;83.90;;;;;;4090055;28;20058;-42
2024/02/11 04:34:02;;;;;;;21.27;12.43;;;15.10;84.10;;;;;;4090545;28;20090;-44
2024/02/11 04:36:43;;;;;;;17.23;11.25;;;15.10;83.70;;;;;;4089953;28;20058;-43
2024/02/11 04:39:24;;;;;;;21.65;12.82;;;15.10;83.40;;;;;;4089929;28;20057;-44
2024/02/11 04:42:06;;;;;;;;;;;15.10;83.40;;;;;;4083733;28;20138;-43
2024/02/11 04:44:47;;;;;;;19.60;11.35;;;15.10;83.30;;;;;;4081932;28;19933;-51
2024/02/11 04:47:29;;;;;;;19.98;12.73;;;15.10;84.00;;;;;;4093218;28;20110;-50
2024/02/11 04:50:11;;;;;;;23.33;14.60;;;15.10;84.40;;;;;;4089714;28;20056;-45
2024/02/11 04:52:55;;;;;;;20.25;11.13;;;15.10;84.80;;;;;;4089154;28;20058;-42
2024/02/11 04:55:39;;;;;;;21.80;12.95;;;15.10;84.00;;;;;;4089392;28;20058;-42
2024/02/11 04:58:23;;;;;;;18.48;11.70;;;15.10;84.20;;;;;;4089595;28;20177;-43
2024/02/11 05:01:04;;;;;;;22.80;11.65;;;15.10;84.10;;;;;;4081816;28;20097;-42
2024/02/11 05:03:47;;;;;;;22.73;11.60;;;15.00;84.20;;;;;;4087968;28;20054;-43
2024/02/11 05:06:28;;;;;;;22.75;12.35;;;15.10;84.60;;;;;;4085359;28;20182;-43
2024/02/11 05:09:10;;;;;;;22.55;12.30;;;15.10;84.90;;;;;;4089462;28;20062;-43
2024/02/11 05:11:54;;;;;;;19.45;11.45;;;15.00;85.00;;;;;;4089548;28;20396;-43
2024/02/11 05:14:35;;;;;;;25.45;13.88;;;15.00;85.00;;;;;;4074786;28;20145;-44
2024/02/11 05:17:16;;;;;;;21.08;12.55;;;15.10;85.00;;;;;;4084098;28;20676;-45
2024/02/11 05:19:58;;;;;;;21.45;12.00;;;15.00;85.10;;;;;;4085677;28;20062;-44
2024/02/11 05:22:44;;;;;;;22.35;12.77;;;15.10;85.40;;;;;;4088709;28;20101;-45
2024/02/11 05:25:26;;;;;;;18.55;11.57;;;15.10;85.60;;;;;;4077239;29;20054;-44
2024/02/11 05:28:09;;;;;;;19.10;11.95;;;15.10;85.50;;;;;;4088660;28;20412;-44
2024/02/11 05:30:52;;;;;;;21.85;11.98;;;15.10;85.60;;;;;;4061171;29;20051;-43
2024/02/11 05:33:32;;;;;;;19.58;11.77;;;15.10;85.80;;;;;;4082024;28;20070;-44
2024/02/11 05:36:15;;;;;;;22.08;12.90;;;15.10;85.90;;;;;;4076762;29;20097;-42
2024/02/11 05:38:57;;;;;;;22.52;13.35;;;15.10;86.10;;;;;;4081365;28;21439;-43
2024/02/11 05:41:37;;;;;;;;;;;15.10;86.00;;;;;;4088632;28;20054;-43
2024/02/11 05:44:19;;;;;;;21.42;12.15;;;15.10;85.80;;;;;;4088969;28;20283;-43
2024/02/11 05:47:00;;;;;;;19.52;11.45;;;15.10;86.00;;;;;;4089134;28;20515;-44
2024/02/11 05:49:41;;;;;;;22.63;12.95;;;15.10;85.90;;;;;;4077278;28;20054;-45
2024/02/11 05:52:24;;;;;;;23.85;11.77;;;15.10;85.80;;;;;;4089526;28;20058;-43
2024/02/11 05:55:09;;;;;;;19.85;11.85;;;15.10;87.30;;;;;;4082677;28;20273;-44
2024/02/11 05:57:51;;;;;;;21.48;13.88;;;15.20;86.70;;;;;;4089080;28;20228;-50
2024/02/11 06:00:32;;;;;;;21.65;13.07;;;15.30;86.50;;;;;;4088588;28;20411;-48
2024/02/11 06:03:14;;;;;;;21.98;13.07;;;15.40;86.10;;;;;;4073844;29;20063;-50
2024/02/11 06:05:55;;;;;;;22.58;12.07;;;15.50;85.70;;;;;;4075630;29;20082;-48
2024/02/11 06:08:37;;;;;;;20.23;12.27;;;15.50;85.50;;;;;;4075748;29;20059;-51
2024/02/11 06:11:19;;;;;;;21.95;13.02;;;15.60;85.40;;;;;;4075893;29;20066;-51
2024/02/11 06:14:04;;;;;;;28.95;12.90;;;15.60;85.30;;;;;;4064164;29;20129;-52
2024/02/11 06:16:45;;;;;;;21.73;11.43;;;15.60;85.20;;;;;;4090022;28;20054;-51
2024/02/11 06:19:26;;;;;;;23.77;12.25;;;15.60;85.30;;;;;;4075798;29;20191;-48
2024/02/11 06:22:08;;;;;;;21.33;12.90;;;15.60;85.20;;;;;;4076327;29;20729;-45
2024/02/11 06:24:51;;;;;;;21.50;12.82;;;15.70;85.10;;;;;;4076093;29;20051;-42
2024/02/11 06:27:32;;;;;;;19.92;11.90;;;15.70;84.90;;;;;;4078307;29;20074;-45
2024/02/11 06:30:13;;;;;;;23.15;12.75;;;15.80;84.80;;;;;;4091309;28;20061;-43
2024/02/11 06:32:54;;;;;;;23.30;12.55;;;15.80;84.70;;;;;;4091562;28;20058;-43
2024/02/11 06:35:35;;;;;;;18.58;11.48;;;15.80;84.40;;;;;;4091631;28;20062;-45
2024/02/11 06:38:17;;;;;;;23.58;12.68;;;15.80;84.30;;;;;;4091412;28;20101;-44
2024/02/11 06:40:59;;;;;;;23.40;13.57;;;15.80;84.50;;;;;;4090924;28;20049;-45
2024/02/11 06:43:40;;;;;;;24.70;13.43;;;15.80;84.90;;;;;;4075620;29;20448;-43
2024/02/11 06:46:21;;;;;;;22.02;11.73;;;15.90;84.80;;;;;;4088223;28;20058;-43
2024/02/11 06:49:02;;;;;;;21.80;12.90;;;15.90;84.40;;;;;;4089158;28;20062;-46
2024/02/11 06:51:44;;;;;;;20.75;12.30;;;16.00;84.00;;;;;;4085670;28;20057;-45
2024/02/11 06:54:25;;;;;;;20.52;13.35;;;16.10;83.90;;;;;;4090436;28;20054;-44
2024/02/11 06:57:10;;;;;;;20.20;11.90;;;16.10;84.70;;;;;;4089681;28;20055;-45
2024/02/11 06:59:52;;;;;;;19.73;11.73;;;16.10;83.30;;;;;;4074417;28;20094;-45
2024/02/11 07:02:34;;;;;;;20.65;12.65;;;16.10;83.60;;;;;;4075433;29;20106;-51
2024/02/11 07:05:15;;;;;;;;;;;16.10;83.50;;;;;;4075821;29;20105;-45
2024/02/11 07:07:59;;;;;;;20.35;11.48;;;16.10;83.60;;;;;;4075902;29;19929;-44
2024/02/11 07:10:40;;;;;;;21.13;12.50;;;16.00;83.70;;;;;;4085051;28;20102;-46
2024/02/11 07:13:23;;;;;;;19.35;11.93;;;16.00;83.50;;;;;;4075167;29;20066;-43
2024/02/11 07:16:07;;;;;;;19.35;12.07;;;16.00;83.30;;;;;;4067531;29;20055;-44
2024/02/11 07:18:49;;;;;;;21.08;11.68;;;16.00;82.90;;;;;;4075123;29;20207;-47
2024/02/11 07:21:30;;;;;;;23.20;13.07;;;16.00;82.60;;;;;;4071784;29;20503;-45
2024/02/11 07:24:11;;;;;;;18.27;11.55;;;16.00;82.20;;;;;;4072637;28;20065;-43
2024/02/11 07:26:52;;;;;;;17.55;11.05;;;16.00;83.20;;;;;;4090789;28;20518;-44
2024/02/11 07:29:35;;;;;;;20.05;11.57;;;16.00;84.40;;;;;;4090982;28;20137;-44
2024/02/11 07:32:16;;;;;;;18.00;10.80;;;15.90;85.50;;;;;;4090496;28;20452;-45
2024/02/11 07:34:57;;;;;;;20.77;10.68;;;15.90;86.10;;;;;;4078618;28;20204;-44
2024/02/11 07:37:38;;;;;;;18.42;11.75;;;15.90;85.70;;;;;;4090753;28;20202;-46
2024/02/11 07:40:19;;;;;;;20.73;11.40;;;15.90;85.20;;;;;;4088062;28;20134;-46
2024/02/11 07:43:01;;;;;;;18.58;10.60;;;15.90;85.00;;;;;;4078869;28;20062;-45
2024/02/11 07:45:43;;;;;;;20.48;12.00;;;15.90;84.60;;;;;;4075949;29;20054;-46
2024/02/11 07:48:25;;;;;;;19.58;11.40;;;15.90;84.40;;;;;;4089067;28;20381;-47
2024/02/11 07:51:07;;;;;;;17.55;11.32;;;15.90;85.30;;;;;;4090401;28;20109;-46
2024/02/11 07:53:49;;;;;;;20.77;12.48;;;16.00;84.40;;;;;;4090043;28;20054;-45
2024/02/11 07:56:30;;;;;;;20.40;12.18;;;16.00;84.00;;;;;;4089434;28;20062;-45
2024/02/11 07:59:12;;;;;;;18.65;11.23;;;16.10;83.70;;;;;;4068625;29;20086;-44
2024/02/11 08:01:55;;;;;;;16.63;11.13;;;16.10;83.30;;;;;;4066683;28;20083;-45
2024/02/11 08:04:36;;;;;;;18.27;11.15;;;16.10;83.00;;;;;;4084728;28;20053;-44
2024/02/11 08:07:17;;;;;;;19.40;11.68;;;16.10;83.00;;;;;;4101760;28;20101;-47
2024/02/11 08:09:58;;;;;;;20.63;11.45;;;16.10;83.10;;;;;;4088744;28;20050;-45
2024/02/11 08:12:40;;;;;;;18.58;11.60;;;16.10;83.10;;;;;;4088839;28;20063;-48
2024/02/11 08:15:21;;;;;;;20.35;11.73;;;16.20;83.00;;;;;;4077733;28;20061;-46
2024/02/11 08:18:06;;;;;;;19.40;11.13;;;16.20;82.60;;;;;;4089063;28;20488;-46
2024/02/11 08:20:47;;;;;;;22.98;11.70;;;16.20;82.50;;;;;;4090321;28;20499;-46
2024/02/11 08:23:28;;;;;;;20.77;11.38;;;16.20;82.50;;;;;;4089169;28;20050;-44
2024/02/11 08:26:10;;;;;;;20.25;11.45;;;16.20;82.70;;;;;;4084116;28;20082;-45
2024/02/11 08:28:51;;;;;;;21.20;10.63;;;16.20;82.70;;;;;;4088438;28;20045;-47
2024/02/11 08:31:32;;;;;;;21.17;11.18;;;16.20;82.30;;;;;;4070943;29;20062;-46
2024/02/11 08:34:15;;;;;;;19.98;11.52;;;16.20;82.30;;;;;;4070445;28;20504;-46
2024/02/11 08:36:56;;;;;;;19.70;11.63;;;16.20;82.10;;;;;;4071994;29;20076;-44
2024/02/11 08:39:37;;;;;;;19.77;11.18;;;16.20;82.20;;;;;;4071917;29;20051;-43
2024/02/11 08:42:18;;;;;;;19.30;11.18;;;16.20;82.70;;;;;;4080999;28;20066;-45
2024/02/11 08:44:59;;;;;;;18.52;10.90;;;16.20;82.80;;;;;;4087276;28;20062;-44
2024/02/11 08:47:40;;;;;;;20.83;11.18;;;16.20;82.90;;;;;;4087264;28;20054;-46
2024/02/11 08:50:25;;;;;;;20.08;12.13;;;16.20;84.00;;;;;;4088268;28;20078;-43
2024/02/11 08:53:06;;;;;;;21.90;11.10;;;16.20;83.20;;;;;;4087895;28;20050;-44
2024/02/11 08:55:48;;;;;;;19.08;11.40;;;16.20;83.20;;;;;;4088149;28;20054;-44
2024/02/11 08:58:29;;;;;;;21.25;10.48;;;16.20;83.10;;;;;;4088482;28;20054;-44
2024/02/11 09:01:10;;;;;;;21.27;11.25;;;16.20;83.80;;;;;;4077099;28;20074;-44
2024/02/11 09:03:51;;;;;;;18.95;10.93;;;16.20;82.60;;;;;;4089065;28;20058;-46
2024/02/11 09:06:34;;;;;;;21.50;11.65;;;16.20;82.40;;;;;;4088558;28;20054;-48
2024/02/11 09:09:25;;;;;;;18.65;10.68;;;16.20;82.80;;;;;;4072423;29;20070;-49
2024/02/11 09:12:09;;;;;;;19.23;10.30;;;16.20;83.20;;;;;;4070177;29;20117;-46
2024/02/11 09:14:50;;;;;;;19.77;10.55;;;16.30;83.50;;;;;;4087905;28;20058;-49
2024/02/11 09:17:32;;;;;;;20.40;10.90;;;16.20;83.60;;;;;;4076484;29;20118;-51
2024/02/11 09:20:14;;;;;;;19.15;10.80;;;16.20;83.40;;;;;;4086018;28;20217;-47
2024/02/11 09:22:56;;;;;;;19.17;10.25;;;16.20;83.50;;;;;;4085202;28;20117;-48
2024/02/11 09:25:38;;;;;;;19.27;10.68;;;16.20;83.50;;;;;;4087842;28;20070;-48
2024/02/11 09:28:20;;;;;;;19.60;10.93;;;16.20;83.30;;;;;;4083127;28;20054;-48
2024/02/11 09:31:02;;;;;;;18.00;10.48;;;16.30;83.10;;;;;;4086941;28;20054;-46
2024/02/11 09:33:43;;;;;;;20.00;10.55;;;16.30;83.10;;;;;;4076283;28;20058;-46
2024/02/11 09:36:24;;;;;;;18.23;11.00;;;16.30;83.10;;;;;;4071732;28;20202;-46
2024/02/11 09:39:10;;;;;;;21.90;11.27;;;16.30;83.00;;;;;;4081956;28;20054;-46
2024/02/11 09:41:51;;;;;;;17.20;10.00;;;16.30;82.80;;;;;;4060723;29;20087;-50
2024/02/11 09:44:35;;;;;;;18.85;10.25;;;16.30;83.10;;;;;;4072548;29;20413;-52
2024/02/11 09:47:17;;;;;;;19.92;10.38;;;16.40;84.00;;;;;;4072138;29;20121;-47
2024/02/11 09:50:03;;;;;;;16.80;10.00;;;16.60;84.70;;;;;;4085668;28;20793;-46
2024/02/11 09:52:46;;;;;;;19.48;10.32;;;17.10;82.90;;;;;;4077023;28;20181;-42
2024/02/11 09:55:31;;;;;;;18.70;10.23;;;17.70;80.40;;;;;;4088073;28;20491;-43
2024/02/11 09:58:12;;;;;;;18.60;11.15;;;18.30;78.00;;;;;;4088147;28;20054;-41
2024/02/11 10:00:55;;;;;;;;;;;18.90;75.50;;;;;;4088176;28;20058;-42
2024/02/11 10:03:38;;;;;;;17.13;10.52;;;19.40;73.50;;;;;;4088632;28;20363;-41
2024/02/11 10:06:20;;;;;;;15.95;9.80;;;19.90;71.60;;;;;;4088224;28;20054;-41
2024/02/11 10:09:00;;;;;;;;;;;20.20;69.80;;;;;;4073053;29;20441;-42
2024/02/11 10:11:43;;;;;;;15.27;9.68;;;20.50;68.60;;;;;;4072662;29;19933;-46
2024/02/11 10:14:29;;;;;;;17.65;10.82;;;20.70;67.60;;;;;;4072791;29;20113;-47
2024/02/11 10:17:11;;;;;;;17.30;10.63;;;20.80;67.10;;;;;;4072636;29;20206;-47
2024/02/11 10:19:53;;;;;;;18.80;10.85;;;20.70;66.90;;;;;;4081512;28;20054;-44
2024/02/11 10:22:35;;;;;;;17.60;10.57;;;20.70;67.20;;;;;;4087407;28;20066;-42
2024/02/11 10:25:17;;;;;;;17.77;9.98;;;20.50;67.60;;;;;;4087705;28;20505;-41
2024/02/11 10:28:10;;;;;;;19.33;11.10;;;20.40;68.00;;;;;;4087441;28;20046;-42
2024/02/11 10:30:57;;;;;;;16.63;10.13;;;20.40;68.60;;;;;;4059862;29;20401;-42
2024/02/11 10:33:39;;;;;;;19.20;11.40;;;20.40;69.00;;;;;;4071854;29;20749;-41
2024/02/11 10:36:23;;;;;;;17.50;11.57;;;20.40;69.10;;;;;;4071896;29;20105;-41
2024/02/11 10:39:05;;;;;;;17.50;11.27;;;20.40;69.40;;;;;;4085827;28;20456;-42
2024/02/11 10:41:47;;;;;;;19.98;11.90;;;20.50;69.50;;;;;;4087591;28;20142;-42
2024/02/11 10:44:30;;;;;;;17.63;11.32;;;20.50;69.40;;;;;;4087782;28;20059;-41
2024/02/11 10:47:12;;;;;;;18.10;11.75;;;20.50;69.00;;;;;;4087585;28;20058;-41
2024/02/11 10:49:54;;;;;;;19.30;11.75;;;20.60;69.10;;;;;;4088085;28;20047;-41
2024/02/11 10:52:39;;;;;;;20.52;12.80;;;20.60;68.90;;;;;;4090278;28;20050;-42
2024/02/11 10:55:26;;;;;;;19.45;12.30;;;20.60;69.10;;;;;;4086192;28;20062;-42
2024/02/11 10:58:12;;;;;;;19.38;12.40;;;20.60;69.60;;;;;;4090417;28;20097;-42
2024/02/11 11:00:55;;;;;;;21.77;12.98;;;20.60;69.30;;;;;;4091197;28;20062;-42
2024/02/11 11:03:39;;;;;;;20.17;11.95;;;20.60;69.10;;;;;;4089205;28;20062;-40
2024/02/11 11:06:22;;;;;;;22.55;12.95;;;20.70;69.00;;;;;;4089534;28;20062;-41
2024/02/11 11:09:06;;;;;;;19.42;12.13;;;20.70;68.90;;;;;;4090851;28;20074;-42
2024/02/11 11:11:46;;;;;;;20.60;13.65;;;20.70;68.80;;;;;;4078604;28;20054;-41
2024/02/11 11:14:32;;;;;;;18.83;13.13;;;20.70;68.80;;;;;;4090350;28;20053;-41
2024/02/11 11:17:24;;;;;;;21.23;13.38;;;20.60;68.70;;;;;;4074038;29;20559;-41
2024/02/11 11:20:12;;;;;;;19.63;12.98;;;20.60;69.20;;;;;;4086097;28;20054;-41
2024/02/11 11:22:55;;;;;;;21.85;13.40;;;20.60;69.30;;;;;;4084500;28;20058;-42
2024/02/11 11:25:36;;;;;;;24.27;14.02;;;20.60;69.40;;;;;;4088746;28;20179;-41
2024/02/11 11:28:18;;;;;;;25.50;14.90;;;20.60;69.00;;;;;;4090106;28;20464;-41
2024/02/11 11:31:01;;;;;;;23.50;14.57;;;20.60;68.80;;;;;;4074761;29;20051;-41
2024/02/11 11:33:44;;;;;;;24.63;15.95;;;20.60;68.70;;;;;;4088313;28;20642;-41
2024/02/11 11:36:25;;;;;;;22.88;15.43;;;20.50;68.80;;;;;;4073923;29;20102;-41
2024/02/11 11:39:07;;;;;;;24.15;15.57;;;20.40;69.10;;;;;;4083877;28;20187;-41
2024/02/11 11:41:48;;;;;;;25.25;15.88;;;20.30;69.90;;;;;;4089698;28;20050;-41
2024/02/11 11:44:29;;;;;;;20.58;14.32;;;20.20;70.20;;;;;;4089761;28;20058;-41
2024/02/11 11:47:10;;;;;;;23.00;15.80;;;20.20;70.60;;;;;;4087606;28;20101;-41
2024/02/11 11:49:54;;;;;;;24.42;15.02;;;20.10;70.30;;;;;;4084942;28;20050;-49
2024/02/11 11:52:35;;;;;;;24.95;15.50;;;20.00;71.50;;;;;;4089259;28;20062;-41
2024/02/11 11:55:16;;;;;;;27.38;17.15;;;19.90;70.80;;;;;;4071373;28;20053;-41
2024/02/11 11:57:58;;;;;;;23.13;15.13;;;19.90;71.00;;;;;;4090160;28;20499;-40
2024/02/11 12:00:41;;;;;;;26.42;15.80;;;19.90;71.50;;;;;;4082391;28;20530;-41
2024/02/11 12:03:22;;;;;;;24.35;16.58;;;19.90;72.10;;;;;;4082492;28;20042;-41
2024/02/11 12:06:05;;;;;;;22.02;15.55;;;19.80;72.30;;;;;;4088739;28;20154;-41
2024/02/11 12:08:47;;;;;;;22.92;14.80;;;19.80;72.30;;;;;;4089247;28;20113;-47
2024/02/11 12:11:28;;;;;;;22.98;14.93;;;19.80;72.00;;;;;;4077729;28;20503;-48
2024/02/11 12:14:10;;;;;;;23.23;15.55;;;19.80;72.30;;;;;;4088340;28;20051;-45
2024/02/11 12:16:51;;;;;;;23.45;16.58;;;19.80;72.60;;;;;;4088417;28;20042;-46
2024/02/11 12:19:37;;;;;;;;;;;19.90;72.20;;;;;;4089965;28;20058;-41
2024/02/11 12:22:20;;;;;;;20.77;13.30;;;19.90;72.40;;;;;;4089246;28;19949;-41
2024/02/11 12:25:01;;;;;;;15.15;10.68;;;19.90;72.70;;;;;;4076887;29;20054;-41
2024/02/11 12:27:42;;;;;;;8.15;6.85;;;19.90;72.40;;;;;;4081308;28;20495;-41
2024/02/11 12:30:24;;;;;;;7.57;5.53;;;19.90;71.60;;;;;;4091132;28;20157;-42
2024/02/11 12:33:06;;;;;;;5.22;4.55;;;19.90;71.30;;;;;;4087838;28;20073;-41
2024/02/11 12:35:49;;;;;;;3.67;3.38;;;19.90;71.50;;;;;;4092582;28;20113;-41
2024/02/11 12:38:31;;;;;;;;;;;19.80;72.20;;;;;;4085315;28;20057;-41
2024/02/11 12:41:15;;;;;;;3.85;3.55;;;19.80;72.10;;;;;;4061455;29;20398;-41
2024/02/11 12:43:56;;;;;;;4.00;3.60;;;19.80;71.90;;;;;;4074727;28;20074;-41
2024/02/11 12:46:38;;;;;;;3.53;3.28;;;19.80;71.90;;;;;;4104473;28;20054;-41
2024/02/11 12:49:19;;;;;;;2.88;2.67;;;19.80;72.00;;;;;;4104311;28;20065;-42
2024/02/11 12:52:00;;;;;;;2.58;2.47;;;19.70;72.60;;;;;;4089456;28;20252;-42
2024/02/11 12:54:46;;;;;;;3.35;2.53;;;19.60;71.70;;;;;;4088632;28;20516;-42
2024/02/11 12:57:27;;;;;;;2.47;2.25;;;19.60;72.40;;;;;;4084090;28;20148;-42
2024/02/11 13:00:10;;;;;;;2.80;2.60;;;19.60;71.80;;;;;;4088482;28;20699;-41
2024/02/11 13:02:51;;;;;;;2.58;2.38;;;19.60;71.30;;;;;;4101761;28;20403;-41
2024/02/11 13:05:32;;;;;;;;;;;19.60;71.70;;;;;;4089188;28;20074;-41
2024/02/11 13:08:13;;;;;;;3.30;3.00;;;19.50;72.20;;;;;;4083417;28;19929;-41
2024/02/11 13:10:56;;;;;;;3.00;2.75;;;19.50;72.50;;;;;;4087830;28;20125;-47
2024/02/11 13:13:38;;;;;;;3.22;3.03;;;19.60;71.80;;;;;;4073173;29;20069;-42
2024/02/11 13:16:18;;;;;;;3.20;2.90;;;19.70;70.90;;;;;;4073023;29;20146;-43
2024/02/11 13:19:01;;;;;;;3.17;2.67;;;19.70;70.10;;;;;;4095661;28;20086;-46
2024/02/11 13:21:46;;;;;;;7.90;2.70;;;19.70;69.60;;;;;;4087599;28;20054;-45
2024/02/11 13:24:28;;;;;;;2.78;2.50;;;19.80;69.70;;;;;;4089161;28;20101;-45
2024/02/11 13:27:11;;;;;;;3.53;3.00;;;19.70;69.50;;;;;;4076115;28;20222;-47
2024/02/11 13:29:52;;;;;;;2.55;2.35;;;19.70;69.60;;;;;;4097139;28;20058;-44
2024/02/11 13:32:33;;;;;;;4.05;2.50;;;19.60;69.50;;;;;;4076458;28;20062;-43
2024/02/11 13:35:14;;;;;;;3.45;2.50;;;19.50;69.40;;;;;;4077482;28;20136;-47
2024/02/11 13:37:55;;;;;;;4.72;2.83;;;19.50;70.60;;;;;;4072283;29;20062;-44
2024/02/11 13:40:37;;;;;;;4.65;2.47;;;19.40;70.10;;;;;;4079093;28;20054;-45
2024/02/11 13:43:19;;;;;;;3.00;2.70;;;19.30;70.40;;;;;;4088739;29;20062;-46
2024/02/11 13:46:00;;;;;;;3.45;2.47;;;19.30;70.70;;;;;;4077134;28;20090;-44
2024/02/11 13:48:41;;;;;;;4.65;3.00;;;19.30;70.60;;;;;;4087074;28;20062;-48